EDT,Max TemperatureF,Mean TemperatureF,Min TemperatureF,Max Dew PointF,MeanDew PointF,Min DewpointF,Max Humidity, Mean Humidity, Min Humidity, Max Sea Level PressureIn, Mean Sea Level PressureIn, Min Sea Level PressureIn, Max VisibilityMiles, Mean VisibilityMiles, Min VisibilityMiles, Max Wind SpeedMPH, Mean Wind SpeedMPH, Max Gust SpeedMPH,PrecipitationIn, CloudCover, Events, WindDirDegrees
2012-9-1,78,64,50,61,55,49,100,70,40,30.14,30.08,29.95,10,7,0,12,3,17,0.00,2,Fog,1
2012-9-2,78,63,48,52,48,43,96,64,31,30.17,30.13,30.10,10,10,10,12,2,17,0.00,3,,351
2012-9-3,83,63,42,55,48,41,96,66,35,30.24,30.17,30.09,10,9,2,12,2,17,0.00,2,,190
2012-9-4,68,62,56,63,60,54,93,85,76,30.10,29.99,29.83,10,9,2,9,1,13,0.49,8,Rain,193
2012-9-5,77,70,62,66,62,60,100,80,60,29.89,29.79,29.70,10,5,0,14,4,21,1.34,7,Fog-Rain,348
2012-9-6,83,72,60,65,62,59,100,74,47,29.92,29.87,29.80,10,7,0,12,2,16,0.00,3,Fog,192
2012-9-7,82,70,58,63,58,53,100,69,37,29.95,29.91,29.86,10,6,0,10,1,17,0.00,2,Fog,165
2012-9-8,81,70,58,65,61,57,93,74,54,29.84,29.68,29.49,10,10,10,9,5,38,0.01,2,Rain,183
2012-9-9,69,58,46,49,47,45,89,67,44,29.95,29.90,29.86,10,10,10,16,3,24,0.00,3,,325
2012-9-10,60,52,44,50,45,40,93,73,53,30.14,30.02,29.95,10,10,2,12,5,17,0.03,7,Rain,333
2012-9-11,69,53,37,49,42,35,93,63,33,30.28,30.23,30.14,10,10,10,13,2,17,0.00,0,,327
2012-9-12,80,61,42,54,47,39,100,68,35,30.37,30.32,30.26,10,8,0,10,3,15,0.00,1,Fog,176
2012-9-13,83,64,45,58,49,44,100,67,34,30.36,30.32,30.23,10,6,0,12,1,16,0.00,3,Fog,178
2012-9-14,83,67,50,61,55,50,100,72,43,30.25,30.18,30.02,10,5,0,22,1,33,0.00,3,Fog,199
2012-9-15,63,55,47,55,48,43,83,69,55,30.11,30.08,30.01,10,10,10,14,5,21,0.01,7,Rain,315
2012-9-16,63,50,36,43,38,34,96,66,36,30.14,30.10,30.04,10,9,2,13,2,18,0.00,1,,334
2012-9-17,78,56,34,57,42,34,100,69,38,30.11,30.06,29.98,10,6,0,9,2,15,0.00,4,Fog,149
2012-9-18,71,58,45,65,53,43,93,86,78,30.01,29.81,29.54,10,6,1,21,5,38,0.61,6,Rain,184
2012-9-19,65,51,36,61,43,36,92,66,39,30.27,30.00,29.61,10,10,2,16,5,21,T,3,Rain,326
2012-9-20,64,50,35,45,39,34,100,72,43,30.32,30.23,30.13,10,6,0,12,2,17,0.00,3,Fog,164
2012-9-21,72,56,39,53,46,39,93,70,47,30.14,30.08,30.01,10,10,10,13,2,17,0.00,0,,163
2012-9-22,73,59,45,59,54,44,97,75,53,30.02,29.86,29.78,10,7,1,13,3,20,0.20,5,Rain,177
2012-9-23,62,51,39,57,45,35,93,65,36,30.12,29.96,29.83,10,10,4,13,2,21,0.01,4,Rain,211
2012-9-24,61,49,37,45,39,36,100,73,46,30.16,30.10,30.05,10,6,0,13,2,17,T,4,Fog-Rain,190
2012-9-25,70,52,34,44,39,33,92,64,36,30.08,30.05,30.01,10,10,10,17,5,25,0.00,0,,198
2012-9-26,66,56,46,56,52,43,93,81,68,30.05,30.01,29.97,10,8,2,21,2,25,0.29,6,Rain-Thunderstorm,301
2012-9-27,59,47,35,54,41,34,100,72,43,30.31,30.22,30.07,10,6,0,14,3,20,0.00,5,Fog,340
2012-9-28,51,43,34,48,42,33,100,87,74,30.30,30.19,30.06,10,5,0,6,0,10,0.01,8,Fog-Rain,190
2012-9-29,57,54,50,54,50,48,100,92,83,30.06,29.99,29.93,10,8,2,7,1,10,0.06,8,Rain,350
2012-9-30,56,54,51,52,51,48,96,87,77,29.95,29.80,29.64,10,8,1,8,1,12,0.27,8,Rain,162